Relevés horaires Schaffen (Belgique)


Relevés horaires à Schaffen - Jeudi 01 Avr. 2021
Heure UTC1 Température [°C] Vent [km/h] Hum. [%] Pres.4 [hPa] Visi. [Km] Nébu. [octa] Préc.5 [mm] Cond.
2m. Res. Ros. Dir.2 Vit. Moy. Raf.3
23:00 5.4 3.8 2.5 N 7.4 -- 11.1 82 1025.5(1.1/3h) 20 -- -- --
22:00 6.6 5.2 2.5 N 7.4 -- 13.0 75 1025(1.5/3h) 20 -- -- --
21:00 8.0 6.4 3.3 N 9.3 -- 14.8 72 1024.7(2.0/3h) 20 -- -- --
20:00 9.2 7.8 4.1 N 9.3 -- 14.8 70 1024.2(1.8/3h) 19 -- -- --
19:00 10.4 9.2 5.1 N 9.3 -- 14.8 70 1023.3(1.4/3h) 20 -- -- --
18:00 12.5 11.5 6.1 N 11.1 -- 18.5 65 1022.7(1.0/3h) 20 -- -- --
17:00 14.5 13.9 7.3 N 11.1 -- 16.7 62 1022.2(0.8/3h) 20 -- -- --
16:00 15.9 15.4 6.5 N 13.0 -- 18.5 54 1021.7(0.6/3h) 20 -- -- --
15:00 17.0 16.7 6.3 N 13.0 -- 18.5 49 1021.5(0.4/3h) 20 -- -- --
14:00 18.4 18.4 8.7 N 13.0 -- 16.7 53 1021.2(0.2/3h) 11 0/8 -- --
13:00 19.4 19.4 8.4 N 11.1 -- 14.8 49 1021.1(0.0/3h) 12 0/8 -- --
12:00 20.4 20.4 9.1 N 9.3 -- 13.0 48 1021(0.0/3h) 15 0/8 -- --
11:00 19.9 19.9 8.3 N 5.6 -- 13.0 47 1021(0.3/3h) 15 0/8 -- --
10:00 19.6 19.6 6.6 NNO 5.6 -- 7.4 43 1021(0.3/3h) 15 0/8 -- --
09:00 17.9 17.9 7.8 N 3.7 -- 7.4 52 1021(0.7/3h) 18 0/8 -- --
08:00 14.5 14.5 5.6 NNO 1.9 -- 1.9 55 1020.7(0.8/3h) 18 0/8 -- --
07:00 12.0 12.0 5.8 NNO 1.9 -- 7.4 66 1020.7(1.2/3h) 12 -- -- --
06:00 7.9 7.2 5.7 N 5.6 -- 9.3 86 1020.3(0.9/3h) 12 -- -- --
05:00 10.2 10.2 6.5 NNO 1.9 -- 1.9 78 1019.8(0.2/3h) 14 -- -- --
04:00 11.5 11.5 5.9 NNO 1.9 -- 1.9 68 1019.7(-0.3/3h) 12 -- -- --
03:00 11.1 11.1 5.7 NNO 1.9 -- 3.7 69 1019.6(-0.7/3h) 15 -- -- --
02:00 12.0 12.0 6.1 S 3.7 -- 3.7 67 1019.6(-0.8/3h) 15 -- -- --
01:00 14.0 14.0 3.2 NNO 1.9 -- 1.9 48 1019.8(-0.3/3h) 18 -- -- --
00:00 15.1 15.1 3.0 NNO 1.9 -- 3.7 44 1020.2(0.2/3h) 17 -- -- --

1 Coordinated Universal Time. Actuellement il est 20:00 locale et 18:00 UTC.

2 Le vent souffle depuis la direction indiquée vers la direction oposée.

3 Les rafales max. sont disponible 40 min après l'heure du relevé.

4 Pour les stations d'altitude (plus de 600m) le géopotentiel du niveau le plus proche de la pression obligatoire est indiqué.

5 Les stations disposant d'un diffuseur peuvent indiquer "trace". Cela signifie que des précipitations ont touchés le sol mais que la quantité est inférieure à 0.1 mm.

Récapitulatif de la journée
Température [°C] Vent [km/h] Ensoleillement4 [h] Precipitations totale5 [mm] Pression [Hpa]
Min1 Max.2 Moy.3 Max. Min Max.
6.6 20.7 0 18.5 0 h 0 min 0 1019.6 1025.5

1 Température minimale relevée entre 18:00 UTC la veille et 18:00 UTC le jour donné.

2 Température maximale relevée entre 06:00 UTC le jour donné et 06:00 UTC le lendemain.

3 Vent moyen de la journée basé sur les relevés horaires.

4 Ensoleillement en heures relevé entre 06:00 UTC la veille et 06:00 UTC le jour donné.

5 Précipitations totales tombées entre 06:00 UTC la jour donné et 06:00 UTC le lendemain.

Graphiques horaires